createdAt,value
2023-03-23T15:58:10.951Z,94240.19
2023-03-23T16:00:39.060Z,94244.75
2023-03-23T16:03:09.679Z,94248.47
2023-03-23T16:05:36.414Z,94244.09
2023-03-23T16:08:03.184Z,94252.00
2023-03-23T16:10:30.050Z,94247.06
2023-03-23T16:12:57.139Z,94245.66
2023-03-23T16:15:23.823Z,94247.78
2023-03-23T16:17:50.706Z,94244.44
2023-03-23T16:20:20.153Z,94247.97
2023-03-23T16:22:47.708Z,94244.94
2023-03-23T16:25:15.372Z,94246.56
2023-03-23T16:27:43.143Z,94244.59
2023-03-23T16:30:25.016Z,94244.44
2023-03-23T16:32:51.983Z,94246.88
2023-03-23T16:35:19.635Z,94254.13
2023-03-23T16:37:51.844Z,94253.44
2023-03-23T16:40:36.020Z,94254.47
2023-03-23T16:43:09.076Z,94252.53
2023-03-23T16:45:43.812Z,94264.91
2023-03-23T16:48:11.990Z,94265.63
2023-03-23T16:50:39.374Z,94255.22
2023-03-23T16:53:08.209Z,94260.81
2023-03-23T16:55:36.637Z,94255.19
2023-03-23T17:00:34.510Z,94248.31
2023-03-23T17:03:01.424Z,94250.06
2023-03-23T17:05:29.757Z,94250.78
2023-03-23T17:07:56.790Z,94245.63
2023-03-23T17:10:27.225Z,94248.28
2023-03-23T17:12:57.427Z,94249.63
2023-03-23T17:15:25.718Z,94247.72
2023-03-23T17:17:53.950Z,94243.47
2023-03-23T17:20:21.141Z,94242.63
2023-03-23T17:22:47.854Z,94246.50
2023-03-23T17:25:14.972Z,94252.81
2023-03-23T17:27:42.877Z,94254.47
2023-03-23T17:30:10.938Z,94246.50
2023-03-23T17:32:37.875Z,94252.13
2023-03-23T17:35:06.030Z,94254.09
2023-03-23T17:37:33.541Z,94251.44
2023-03-23T17:40:00.521Z,94253.41
2023-03-23T17:42:27.391Z,94254.59
2023-03-23T17:44:54.122Z,94255.59
2023-03-23T17:47:21.081Z,94252.66
2023-03-23T17:49:48.199Z,94257.38
2023-03-23T17:52:14.990Z,94259.16
2023-03-23T17:54:42.203Z,94254.06
2023-03-23T17:57:09.211Z,94256.00
2023-03-23T17:59:36.135Z,94257.38
2023-03-23T18:02:02.980Z,94259.16
2023-03-23T18:04:29.655Z,94259.16
2023-03-23T18:06:57.687Z,94259.69
2023-03-23T18:09:25.685Z,94268.16
2023-03-23T18:11:53.306Z,94266.03
2023-03-23T18:14:20.889Z,94265.13
2023-03-23T18:16:48.269Z,94270.94
2023-03-23T18:19:15.495Z,94264.94
2023-03-23T18:21:45.324Z,94269.53
2023-03-23T18:24:12.961Z,94263.34
2023-03-23T18:26:40.872Z,94277.13
2023-03-23T18:29:07.516Z,94278.34
2023-03-23T18:31:39.970Z,94280.25
2023-03-23T18:34:07.408Z,94278.84
2023-03-23T18:36:34.734Z,94274.78
2023-03-23T18:39:01.942Z,94279.91
2023-03-23T18:41:28.629Z,94280.44
2023-03-23T18:43:57.558Z,94279.00
2023-03-23T18:46:24.576Z,94278.13
2023-03-23T18:48:51.285Z,94277.41
2023-03-23T18:51:18.103Z,94279.84
2023-03-23T18:53:44.819Z,94287.09
2023-03-23T18:56:16.126Z,94284.94
2023-03-23T18:58:43.672Z,94280.94
2023-03-23T19:01:13.391Z,94276.66
2023-03-23T19:03:40.942Z,94287.78
2023-03-23T19:06:15.512Z,94293.06
2023-03-23T19:08:42.477Z,94296.72
2023-03-23T19:11:12.418Z,94297.97
2023-03-23T19:13:44.496Z,94297.78
2023-03-23T19:16:17.486Z,94293.00
2023-03-23T19:18:44.295Z,94297.38
2023-03-23T19:21:15.643Z,94301.28
2023-03-23T19:23:44.902Z,94291.72
2023-03-23T19:26:29.334Z,94292.44
2023-03-23T19:31:26.504Z,94300.53
2023-03-23T19:33:53.597Z,94287.81
2023-03-23T19:36:24.410Z,94296.28
2023-03-23T19:38:53.058Z,94299.44
2023-03-23T19:41:20.580Z,94298.00
2023-03-23T19:43:47.512Z,94298.38
2023-03-23T19:46:14.698Z,94297.47
2023-03-23T19:48:41.820Z,94300.09
2023-03-23T19:51:09.824Z,94298.00
2023-03-23T19:53:37.352Z,94299.03
2023-03-23T19:56:05.161Z,94300.22
2023-03-23T19:58:32.569Z,94301.50
2023-03-23T20:01:01.231Z,94296.69
2023-03-23T20:03:28.488Z,94295.09
2023-03-23T20:06:02.936Z,94291.03
2023-03-23T20:08:31.320Z,94292.06
2023-03-23T20:11:12.644Z,94293.97
2023-03-23T20:13:40.906Z,94281.13
2023-03-23T20:16:09.084Z,94287.63
2023-03-23T20:18:37.945Z,94291.50
2023-03-23T20:21:08.093Z,94287.25
2023-03-23T20:23:36.224Z,94284.41
2023-03-23T20:26:11.688Z,94282.97
2023-03-23T20:28:39.275Z,94285.44
2023-03-23T20:31:16.745Z,94281.91
2023-03-23T20:34:00.765Z,94282.25
2023-03-23T20:36:35.142Z,94288.03
2023-03-23T20:39:06.144Z,94286.41
2023-03-23T20:41:36.310Z,94288.50
2023-03-23T20:44:04.313Z,94289.22
2023-03-23T20:46:31.797Z,94287.06
2023-03-23T20:48:58.641Z,94286.84
2023-03-23T20:51:25.758Z,94278.75
2023-03-23T20:53:53.355Z,94284.03
2023-03-23T20:56:20.375Z,94280.00
2023-03-23T20:58:47.793Z,94282.44
2023-03-23T21:01:15.454Z,94272.19
2023-03-23T21:03:44.015Z,94278.19
2023-03-23T21:06:10.986Z,94275.16
2023-03-23T21:08:39.635Z,94269.19
2023-03-23T21:11:10.100Z,94262.97
2023-03-23T21:13:36.917Z,94270.72
2023-03-23T21:16:04.373Z,94269.31
2023-03-23T21:18:31.891Z,94264.53
2023-03-23T21:21:00.389Z,94255.19
2023-03-23T21:23:29.734Z,94253.75
2023-03-23T21:26:02.521Z,94246.38
2023-03-23T21:28:29.481Z,94250.03
2023-03-23T21:31:07.474Z,94247.91
2023-03-23T21:33:34.454Z,94239.81
2023-03-23T21:36:01.314Z,94224.47
2023-03-23T21:38:28.765Z,94231.69
2023-03-23T21:40:57.668Z,94223.56
2023-03-23T21:43:28.161Z,94217.63
2023-03-23T21:45:59.267Z,94217.41
2023-03-23T21:48:29.818Z,94219.84
2023-03-23T21:50:57.064Z,94214.38
2023-03-23T21:53:25.613Z,94214.88
2023-03-23T21:55:52.809Z,94208.91
2023-03-23T21:58:21.792Z,94213.78
2023-03-23T22:00:53.953Z,94204.47
2023-03-23T22:03:25.118Z,94196.56
2023-03-23T22:05:54.723Z,94199.69
2023-03-23T22:08:29.317Z,94201.44
2023-03-23T22:11:01.988Z,94196.66
2023-03-23T22:13:30.998Z,94185.19
2023-03-23T22:15:59.794Z,94181.84
2023-03-23T22:18:27.593Z,94182.38
2023-03-23T22:20:54.681Z,94184.81
2023-03-23T22:23:21.699Z,94184.81
2023-03-23T22:25:48.470Z,94178.44
2023-03-23T22:28:15.561Z,94183.03
2023-03-23T22:30:42.464Z,94171.06
2023-03-23T22:33:09.198Z,94168.91
2023-03-23T22:35:36.306Z,94167.47
2023-03-23T22:38:03.389Z,94171.16
2023-03-23T22:40:33.314Z,94163.97
2023-03-23T22:43:00.160Z,94161.84
2023-03-23T22:45:28.111Z,94155.66
2023-03-23T22:47:56.357Z,94157.06
2023-03-23T22:50:24.323Z,94151.63
2023-03-23T22:52:51.322Z,94154.06
2023-03-23T22:55:18.332Z,94144.00
2023-03-23T22:57:45.485Z,94132.06
2023-03-23T23:00:18.699Z,94137.84
2023-03-23T23:02:45.818Z,94136.94
2023-03-23T23:05:13.474Z,94132.19
2023-03-23T23:07:40.690Z,94130.06
2023-03-23T23:10:08.325Z,94127.94
2023-03-23T23:12:35.390Z,94126.53
2023-03-23T23:15:05.975Z,94121.75
2023-03-23T23:17:34.731Z,94124.91
2023-03-23T23:20:05.859Z,94118.22
2023-03-23T23:22:33.506Z,94119.44
2023-03-23T23:25:00.770Z,94118.00
2023-03-23T23:27:27.633Z,94106.38
2023-03-23T23:29:54.395Z,94113.06
2023-03-23T23:32:21.189Z,94105.66
2023-03-23T23:34:48.528Z,94094.41
2023-03-23T23:37:15.574Z,94098.78
2023-03-23T23:39:42.608Z,94097.38
2023-03-23T23:42:09.920Z,94075.34
2023-03-23T23:44:36.882Z,94072.72
2023-03-23T23:47:04.258Z,94066.56
2023-03-23T23:49:33.060Z,94063.00
2023-03-23T23:52:00.523Z,94061.09
2023-03-23T23:54:30.441Z,94081.97
2023-03-23T23:57:01.223Z,94083.19
2023-03-23T23:59:29.199Z,94087.59
